Time;durP1;ratioP1;P1;durP2;ratioP2;P2;SDS_P1;SDS_P2;PMS_P1;PMS_P2;Temp;Humidity;BMP_temperature;BMP_pressure;BME280_temperature;BME280_humidity;BME280_pressure;Samples;Min_cycle;Max_cycle;Signal;HPM_P1;HPM_P2
2023/03/22 00:00:14;;;;;;;17.30;8.48;;;;;;;8.27;100.00;100885.25;5052422;28;20040;-64
2023/03/22 00:02:39;;;;;;;20.65;8.88;;;;;;;8.25;100.00;100884.34;5051901;28;20433;-65
2023/03/22 00:05:05;;;;;;;18.08;7.80;;;;;;;8.19;100.00;100884.09;5052406;28;20557;-65
2023/03/22 00:07:31;;;;;;;17.23;7.22;;;;;;;8.15;100.00;100883.09;5052478;28;20029;-64
2023/03/22 00:09:56;;;;;;;14.60;6.88;;;;;;;8.17;100.00;100876.34;5051564;28;20079;-64
2023/03/22 00:12:21;;;;;;;22.33;7.43;;;;;;;8.17;100.00;100873.78;5052809;28;20028;-64
2023/03/22 00:14:48;;;;;;;19.52;7.88;;;;;;;8.19;100.00;100869.56;5052693;28;20031;-64
2023/03/22 00:17:13;;;;;;;15.48;7.65;;;;;;;8.13;100.00;100865.88;5051648;28;20094;-64
2023/03/22 00:19:41;;;;;;;20.05;6.78;;;;;;;8.09;100.00;100859.72;5052566;28;20029;-64
2023/03/22 00:22:07;;;;;;;17.77;6.40;;;;;;;8.09;100.00;100862.31;5052338;28;20025;-64
2023/03/22 00:24:32;;;;;;;18.85;6.50;;;;;;;8.08;100.00;100857.97;5052017;28;20031;-64
2023/03/22 00:26:58;;;;;;;16.45;6.70;;;;;;;8.05;100.00;100855.28;5052361;28;20021;-64
2023/03/22 00:29:23;;;;;;;16.75;6.53;;;;;;;7.96;100.00;100854.94;5052730;28;20021;-64
2023/03/22 00:31:50;;;;;;;20.23;7.05;;;;;;;7.96;100.00;100847.22;5051712;28;20032;-64
2023/03/22 00:34:16;;;;;;;15.48;6.10;;;;;;;7.92;100.00;100846.22;5054494;28;20060;-65
2023/03/22 00:36:41;;;;;;;16.27;6.68;;;;;;;7.94;100.00;100846.28;5056146;28;20052;-64
2023/03/22 00:39:07;;;;;;;15.57;6.43;;;;;;;7.87;100.00;100840.91;5055459;28;20079;-64
2023/03/22 00:41:32;;;;;;;16.42;6.05;;;;;;;7.88;100.00;100832.41;5056443;28;20037;-64
2023/03/22 00:43:58;;;;;;;18.98;6.95;;;;;;;7.88;100.00;100832.41;5055739;28;20055;-64
2023/03/22 00:46:23;;;;;;;15.52;6.50;;;;;;;7.85;100.00;100827.16;5055963;28;20029;-64
2023/03/22 00:48:49;;;;;;;19.15;6.63;;;;;;;7.90;100.00;100830.78;5056396;28;20033;-64
2023/03/22 00:51:15;;;;;;;16.08;7.15;;;;;;;7.88;100.00;100822.13;5055645;28;20033;-64
2023/03/22 00:53:41;;;;;;;17.70;7.32;;;;;;;7.89;100.00;100817.91;5055792;28;20021;-64
2023/03/22 00:56:07;;;;;;;17.10;7.35;;;;;;;7.88;100.00;100811.88;5055777;28;20048;-64
2023/03/22 00:58:32;;;;;;;18.70;7.35;;;;;;;7.93;100.00;100816.28;5055933;28;20025;-64
2023/03/22 01:00:57;;;;;;;17.25;7.85;;;;;;;7.95;100.00;100814.69;5054960;28;20051;-64
2023/03/22 01:03:23;;;;;;;18.83;8.23;;;;;;;7.96;100.00;100799.34;5056041;28;20053;-64
2023/03/22 01:05:51;;;;;;;21.17;8.48;;;;;;;8.00;100.00;100805.47;5055131;28;20096;-64
2023/03/22 01:08:16;;;;;;;;;;;;;;;8.04;100.00;100797.06;5055834;28;20048;-64
2023/03/22 01:10:43;;;;;;;20.42;9.23;;;;;;;8.04;100.00;100800.53;5056040;28;20322;-64
2023/03/22 01:13:10;;;;;;;22.60;9.32;;;;;;;8.03;100.00;100795.31;5054983;28;20043;-64
2023/03/22 01:15:36;;;;;;;27.87;11.07;;;;;;;8.09;100.00;100780.16;5055976;28;20032;-64
2023/03/22 01:18:01;;;;;;;21.25;10.68;;;;;;;8.10;100.00;100791.31;5055301;28;20029;-64
2023/03/22 01:20:27;;;;;;;27.77;11.45;;;;;;;8.17;100.00;100777.88;5054970;28;20036;-64
2023/03/22 01:22:52;;;;;;;27.45;12.70;;;;;;;8.21;100.00;100769.47;5055484;28;20037;-64
2023/03/22 01:25:18;;;;;;;27.13;12.70;;;;;;;8.18;100.00;100765.09;5055459;28;20101;-64
2023/03/22 01:27:44;;;;;;;26.98;12.80;;;;;;;8.18;100.00;100759.09;5054916;28;20040;-64
2023/03/22 01:30:10;;;;;;;31.67;13.32;;;;;;;8.26;100.00;100747.41;5055199;28;20520;-64
2023/03/22 01:32:35;;;;;;;25.35;13.80;;;;;;;8.31;100.00;100742.47;5055340;28;20037;-64
2023/03/22 01:35:01;;;;;;;29.15;13.27;;;;;;;8.37;100.00;100727.28;5054389;28;20111;-64
2023/03/22 01:37:27;;;;;;;25.55;14.40;;;;;;;8.43;100.00;100724.97;5055253;28;20116;-64
2023/03/22 01:39:53;;;;;;;27.70;14.50;;;;;;;8.48;100.00;100738.88;5055350;28;20090;-64
2023/03/22 01:42:21;;;;;;;30.52;14.50;;;;;;;8.55;100.00;100724.53;5054831;28;20061;-65
2023/03/22 01:45:12;;;;;;;26.67;15.05;;;;;;;8.56;100.00;100716.88;5054574;28;20082;-64
2023/03/22 01:47:39;;;;;;;25.85;15.23;;;;;;;8.59;100.00;100716.13;5054809;28;20060;-64
2023/03/22 01:50:05;;;;;;;27.35;15.90;;;;;;;8.62;100.00;100708.50;5054633;28;20025;-64
2023/03/22 01:52:31;;;;;;;26.27;15.95;;;;;;;8.66;100.00;100701.78;5054990;28;20468;-64
2023/03/22 01:54:56;;;;;;;31.70;17.45;;;;;;;8.68;100.00;100689.88;5054247;28;20021;-64
2023/03/22 01:57:22;;;;;;;27.95;16.95;;;;;;;8.68;100.00;100690.75;5055012;28;20040;-64
2023/03/22 01:59:49;;;;;;;27.33;17.70;;;;;;;8.76;100.00;100687.59;5054792;28;20087;-64
2023/03/22 02:02:17;;;;;;;26.20;17.48;;;;;;;8.80;100.00;100685.16;5053889;28;20033;-64
2023/03/22 02:04:49;;;;;;;25.90;17.90;;;;;;;8.84;100.00;100683.56;5054911;28;20403;-64
2023/03/22 02:07:26;;;;;;;32.88;18.42;;;;;;;8.87;100.00;100678.53;5054848;28;20029;-63
2023/03/22 02:09:52;;;;;;;26.02;18.20;;;;;;;8.92;100.00;100683.81;5054070;28;20464;-64
2023/03/22 02:12:20;;;;;;;31.27;19.55;;;;;;;8.95;100.00;100668.50;5054428;28;20494;-64
2023/03/22 02:14:57;;;;;;;30.63;19.50;;;;;;;8.98;100.00;100673.75;5054731;28;20375;-64
2023/03/22 02:17:44;;;;;;;31.02;18.77;;;;;;;9.00;100.00;100672.09;5054354;28;20040;-64
2023/03/22 02:20:27;;;;;;;28.38;19.42;;;;;;;9.01;100.00;100666.13;5054355;28;20033;-64
2023/03/22 02:23:07;;;;;;;30.60;19.92;;;;;;;9.03;100.00;100664.50;5054284;28;20090;-64
2023/03/22 02:25:36;;;;;;;30.77;19.92;;;;;;;9.06;100.00;100667.16;5054765;28;20044;-64
2023/03/22 02:28:33;;;;;;;27.33;19.58;;;;;;;9.05;100.00;100667.97;5054256;28;20028;-64
2023/03/22 02:31:34;;;;;;;25.05;17.17;;;;;;;9.07;100.00;100663.78;5053378;28;20120;-64
2023/03/22 02:34:36;;;;;;;30.15;18.67;;;;;;;9.06;100.00;100656.88;5054236;28;20100;-64
2023/03/22 02:37:39;;;;;;;24.73;17.35;;;;;;;9.06;100.00;100649.16;5053779;28;20029;-64
2023/03/22 02:40:20;;;;;;;27.08;18.05;;;;;;;9.05;100.00;100656.00;5054023;28;20033;-64
2023/03/22 02:42:59;;;;;;;28.05;16.95;;;;;;;9.04;100.00;100656.84;5054065;28;20355;-64
2023/03/22 02:45:33;;;;;;;26.58;17.20;;;;;;;9.05;100.00;100649.97;5053538;28;20464;-64
2023/03/22 02:48:13;;;;;;;27.05;16.05;;;;;;;9.06;100.00;100657.78;5053710;28;20017;-64
2023/03/22 02:50:44;;;;;;;26.02;16.65;;;;;;;9.06;100.00;100651.72;5053967;28;20036;-64
2023/03/22 02:53:18;;;;;;;23.30;15.75;;;;;;;9.08;100.00;100644.97;5053296;28;20104;-64
2023/03/22 02:55:50;;;;;;;22.65;14.55;;;;;;;9.12;100.00;100651.94;5053986;28;20021;-63
2023/03/22 02:58:21;;;;;;;21.77;14.77;;;;;;;9.10;100.00;100639.88;5052858;28;20029;-64
2023/03/22 03:00:50;;;;;;;23.63;15.20;;;;;;;9.10;100.00;100635.59;5053584;28;20106;-63
2023/03/22 03:03:18;;;;;;;25.45;14.68;;;;;;;9.08;100.00;100629.53;5053628;28;20074;-64
2023/03/22 03:05:52;;;;;;;24.42;15.00;;;;;;;9.07;100.00;100627.78;5052904;28;20036;-64
2023/03/22 03:08:19;;;;;;;23.00;14.05;;;;;;;9.12;100.00;100633.94;5053246;28;20028;-64
2023/03/22 03:10:46;;;;;;;21.70;13.30;;;;;;;9.10;100.00;100633.00;5053575;28;20028;-64
2023/03/22 03:13:13;;;;;;;21.75;13.00;;;;;;;9.02;100.00;100627.63;5052512;28;20060;-64
2023/03/22 03:15:42;;;;;;;21.73;13.65;;;;;;;9.02;100.00;100629.34;5053798;28;20036;-64
2023/03/22 03:18:17;;;;;;;21.73;14.05;;;;;;;9.02;100.00;100629.34;5053082;28;20048;-64
2023/03/22 03:20:51;;;;;;;21.55;12.35;;;;;;;9.03;100.00;100626.81;5052829;28;20021;-64
2023/03/22 03:23:23;;;;;;;20.30;12.35;;;;;;;9.02;100.00;100624.19;5053057;28;20024;-63
2023/03/22 03:26:07;;;;;;;21.40;11.70;;;;;;;9.00;100.00;100612.97;5053129;28;20033;-64
2023/03/22 03:28:49;;;;;;;18.63;12.10;;;;;;;9.00;100.00;100620.69;5052786;28;20032;-64
2023/03/22 03:31:20;;;;;;;21.73;11.30;;;;;;;9.00;100.00;100611.28;5052968;28;20037;-64
2023/03/22 03:34:08;;;;;;;19.80;11.63;;;;;;;9.02;100.00;100625.06;5052346;28;20044;-64
2023/03/22 03:36:37;;;;;;;23.88;11.63;;;;;;;9.03;100.00;100613.09;5042160;28;20043;-64
2023/03/22 03:39:07;;;;;;;19.50;11.93;;;;;;;8.99;100.00;100618.97;5052777;28;20029;-64
2023/03/22 03:41:33;;;;;;;18.02;11.02;;;;;;;8.97;100.00;100611.19;5052632;28;20032;-64
2023/03/22 03:43:59;;;;;;;16.23;9.63;;;;;;;8.98;100.00;100612.06;5052790;28;20025;-64
2023/03/22 03:46:25;;;;;;;20.95;10.70;;;;;;;8.94;100.00;100615.38;5052735;28;20028;-64
2023/03/22 03:48:51;;;;;;;21.02;10.48;;;;;;;8.93;100.00;100619.63;5052443;28;20032;-64
2023/03/22 03:51:17;;;;;;;18.00;10.23;;;;;;;8.91;100.00;100621.28;5052803;28;20116;-64
2023/03/22 03:53:43;;;;;;;13.75;9.05;;;;;;;8.88;100.00;100616.91;5052762;28;20126;-65
2023/03/22 03:56:09;;;;;;;20.92;10.13;;;;;;;8.88;100.00;100629.75;5051995;28;20041;-64
2023/03/22 03:58:35;;;;;;;20.63;9.98;;;;;;;8.88;100.00;100627.19;5052805;28;20029;-64
2023/03/22 04:01:00;;;;;;;19.95;9.05;;;;;;;8.83;100.00;100628.75;5051923;28;20060;-64
2023/03/22 04:03:26;;;;;;;14.38;9.20;;;;;;;8.79;100.00;100632.03;5052457;28;20083;-64
2023/03/22 04:05:51;;;;;;;16.40;9.15;;;;;;;8.76;100.00;100621.63;5052926;28;20371;-63
2023/03/22 04:08:16;;;;;;;22.48;9.02;;;;;;;8.77;100.00;100620.81;5051838;28;20464;-64
2023/03/22 04:10:42;;;;;;;18.05;8.90;;;;;;;8.75;100.00;100625.03;5052244;28;20021;-64
2023/03/22 04:13:08;;;;;;;17.92;8.27;;;;;;;8.71;100.00;100620.59;5052434;28;20025;-63
2023/03/22 04:15:33;;;;;;;19.52;8.95;;;;;;;8.72;100.00;100614.66;5052419;28;20047;-64
2023/03/22 04:17:58;;;;;;;16.95;8.77;;;;;;;8.70;100.00;100617.19;5052053;28;20055;-64
2023/03/22 04:20:28;;;;;;;16.80;8.48;;;;;;;8.63;100.00;100619.50;5052777;28;20387;-64
2023/03/22 04:22:54;;;;;;;15.80;8.18;;;;;;;8.63;100.00;100616.91;5051590;28;20048;-64
2023/03/22 04:25:21;;;;;;;15.45;7.95;;;;;;;8.66;100.00;100609.31;5052604;28;20025;-64
2023/03/22 04:27:49;;;;;;;16.95;8.27;;;;;;;8.63;100.00;100610.06;5052405;28;20104;-64
2023/03/22 04:30:19;;;;;;;15.43;7.97;;;;;;;8.61;100.00;100608.28;5051369;28;20087;-64
2023/03/22 04:32:48;;;;;;;19.08;8.27;;;;;;;8.57;100.00;100605.63;5052239;28;20533;-64
2023/03/22 04:35:15;;;;;;;14.18;7.25;;;;;;;8.56;100.00;100606.44;5052292;28;20494;-64
2023/03/22 04:37:41;;;;;;;21.10;9.07;;;;;;;8.56;100.00;100597.88;5051969;28;20147;-64
2023/03/22 04:40:08;;;;;;;14.65;7.45;;;;;;;8.51;100.00;100599.41;5052120;28;20032;-65
2023/03/22 04:42:34;;;;;;;21.52;8.60;;;;;;;8.56;100.00;100601.28;5052002;28;20033;-64
2023/03/22 04:45:02;;;;;;;19.70;7.97;;;;;;;8.54;100.00;100599.50;5051414;28;20321;-64
2023/03/22 04:47:27;;;;;;;16.90;7.47;;;;;;;8.49;100.00;100596.75;5052451;28;20025;-64
2023/03/22 04:49:52;;;;;;;14.95;7.35;;;;;;;8.48;100.00;100595.03;5051972;28;20035;-64
2023/03/22 04:52:18;;;;;;;19.15;8.10;;;;;;;8.49;100.00;100591.63;5051443;28;20066;-64
2023/03/22 04:54:43;;;;;;;18.35;7.78;;;;;;;8.51;100.00;100586.56;5052242;28;20025;-65
2023/03/22 04:57:08;;;;;;;21.48;8.07;;;;;;;8.48;100.00;100592.47;5051740;28;20166;-64
2023/03/22 04:59:34;;;;;;;17.45;8.15;;;;;;;8.53;100.00;100592.59;5051759;28;20045;-64
2023/03/22 05:01:59;;;;;;;19.60;8.20;;;;;;;8.51;100.00;100591.69;5051713;28;20451;-64
2023/03/22 05:04:26;;;;;;;18.40;7.88;;;;;;;8.50;100.00;100595.94;5051762;28;20025;-64
2023/03/22 05:06:52;;;;;;;20.30;8.02;;;;;;;8.52;100.00;100591.75;5051613;28;20376;-64
2023/03/22 05:09:17;;;;;;;18.83;7.95;;;;;;;8.53;100.00;100590.94;5051883;28;20059;-64
2023/03/22 05:11:42;;;;;;;22.55;7.53;;;;;;;8.55;100.00;100583.28;5051824;28;20048;-64
2023/03/22 05:14:08;;;;;;;16.35;7.18;;;;;;;8.56;100.00;100585.03;5051428;28;20372;-64
2023/03/22 05:16:34;;;;;;;19.50;8.27;;;;;;;8.59;100.00;100581.69;5052117;28;20032;-64
2023/03/22 05:19:01;;;;;;;17.88;7.13;;;;;;;8.56;100.00;100578.19;5051130;28;20143;-64
2023/03/22 05:21:28;;;;;;;15.93;6.63;;;;;;;8.51;100.00;100574.59;5054493;28;20033;-64
2023/03/22 05:23:57;;;;;;;15.50;7.03;;;;;;;8.51;100.00;100579.72;5055437;28;20111;-64
2023/03/22 05:26:25;;;;;;;17.50;6.85;;;;;;;8.51;100.00;100573.72;5054832;28;20376;-64
2023/03/22 05:28:52;;;;;;;17.30;6.70;;;;;;;8.52;100.00;100576.34;5055630;28;20092;-64
2023/03/22 05:31:20;;;;;;;16.42;6.35;;;;;;;8.49;100.00;100576.22;5055151;28;20147;-64
2023/03/22 05:33:49;;;;;;;17.33;7.07;;;;;;;8.51;100.00;100579.72;5054657;28;20056;-64
2023/03/22 05:36:15;;;;;;;19.30;6.85;;;;;;;8.49;100.00;100581.34;5055077;28;20036;-64
2023/03/22 05:38:41;;;;;;;16.73;6.35;;;;;;;8.52;100.00;100586.59;5055195;28;20025;-64
2023/03/22 05:41:06;;;;;;;19.60;6.75;;;;;;;8.52;100.00;100580.56;5054296;28;20108;-64
2023/03/22 05:43:31;;;;;;;16.83;6.15;;;;;;;8.53;100.00;100578.09;5055574;28;20021;-64
2023/03/22 05:45:57;;;;;;;18.35;6.50;;;;;;;8.54;100.00;100576.38;5054889;28;20380;-64
2023/03/22 05:48:22;;;;;;;13.98;5.70;;;;;;;8.54;100.00;100581.50;5054780;28;20386;-64
2023/03/22 05:50:47;;;;;;;14.43;5.82;;;;;;;8.50;100.00;100577.97;5055112;28;20379;-64
2023/03/22 05:53:13;;;;;;;15.32;5.95;;;;;;;8.46;100.00;100576.13;5054608;28;20032;-64
2023/03/22 05:55:38;;;;;;;20.00;6.13;;;;;;;8.46;100.00;100576.13;5054513;28;20028;-64
2023/03/22 05:58:04;;;;;;;11.90;5.22;;;;;;;8.44;100.00;100577.72;5054913;28;20025;-65
2023/03/22 06:00:30;;;;;;;16.00;5.63;;;;;;;8.45;100.00;100592.31;5054686;28;20480;-64
2023/03/22 06:03:02;;;;;;;16.73;5.72;;;;;;;8.47;100.00;100580.44;5054064;28;20024;-64
2023/03/22 06:05:27;;;;;;;16.85;5.70;;;;;;;8.52;100.00;100580.56;5054839;28;20426;-64
2023/03/22 06:07:53;;;;;;;17.50;5.32;;;;;;;8.51;100.00;100584.84;5054542;28;20023;-65
2023/03/22 06:10:18;;;;;;;16.52;6.03;;;;;;;8.53;100.00;100583.22;5054180;28;20037;-64
2023/03/22 06:12:44;;;;;;;13.07;5.53;;;;;;;8.55;100.00;100573.00;5054969;28;20090;-64
2023/03/22 06:15:10;;;;;;;21.02;5.78;;;;;;;8.54;100.00;100573.81;5054026;28;20017;-64
2023/03/22 06:17:35;;;;;;;16.15;5.28;;;;;;;8.61;100.00;100580.03;5054654;28;20036;-64
2023/03/22 06:20:08;;;;;;;15.07;5.70;;;;;;;8.61;100.00;100574.88;5054339;28;20032;-64
2023/03/22 06:22:34;;;;;;;16.90;5.20;;;;;;;8.64;100.00;100569.88;5053627;28;20112;-64
2023/03/22 06:25:00;;;;;;;17.02;5.80;;;;;;;8.68;100.00;100571.72;5054318;28;20035;-65
2023/03/22 06:27:25;;;;;;;18.73;5.63;;;;;;;8.69;100.00;100570.88;5054424;28;20020;-64
2023/03/22 06:29:53;;;;;;;15.82;5.57;;;;;;;8.71;100.00;100575.25;5053713;28;20033;-65
2023/03/22 06:32:22;;;;;;;16.33;5.18;;;;;;;8.73;100.00;100578.72;5053913;28;20032;-64
2023/03/22 06:34:48;;;;;;;19.88;5.68;;;;;;;8.78;100.00;100576.31;5054038;28;20021;-64
2023/03/22 06:37:13;;;;;;;18.15;6.10;;;;;;;8.83;100.00;100572.19;5053287;28;20049;-64
2023/03/22 06:39:39;;;;;;;14.10;5.07;;;;;;;8.87;100.00;100574.03;5054392;28;20024;-64
2023/03/22 06:42:04;;;;;;;14.35;5.70;;;;;;;8.90;100.00;100576.69;5053484;28;20024;-64
2023/03/22 06:44:30;;;;;;;17.10;5.07;;;;;;;8.95;100.00;100575.97;5053455;28;20078;-64
2023/03/22 06:46:55;;;;;;;14.55;6.30;;;;;;;8.98;100.00;100581.22;5053953;28;20524;-64
2023/03/22 06:49:21;;;;;;;13.98;5.78;;;;;;;9.01;100.00;100578.72;5053914;28;20025;-64
2023/03/22 06:51:46;;;;;;;19.17;6.60;;;;;;;9.05;100.00;100580.56;5053387;28;20036;-64
2023/03/22 06:54:13;;;;;;;14.07;5.93;;;;;;;9.10;100.00;100581.59;5053700;28;20025;-65
2023/03/22 06:56:38;;;;;;;18.02;6.05;;;;;;;9.18;100.00;100579.25;5053963;28;20028;-65
2023/03/22 06:59:12;;;;;;;17.17;6.65;;;;;;;9.30;100.00;100586.50;5053082;28;20025;-64
2023/03/22 07:01:37;;;;;;;14.38;6.22;;;;;;;9.39;100.00;100571.34;5053768;28;20174;-64
2023/03/22 07:04:03;;;;;;;17.48;6.93;;;;;;;9.49;100.00;100575.94;5053208;28;20063;-64
2023/03/22 07:06:29;;;;;;;18.98;6.68;;;;;;;9.55;100.00;100568.41;5053124;28;20037;-64
2023/03/22 07:08:55;;;;;;;14.55;6.03;;;;;;;9.59;100.00;100576.19;5053294;28;20025;-64
2023/03/22 07:11:20;;;;;;;20.38;6.55;;;;;;;9.58;100.00;100577.03;5053437;28;20031;-64
2023/03/22 07:13:45;;;;;;;16.83;6.47;;;;;;;9.56;100.00;100577.84;5053227;28;20044;-64
2023/03/22 07:16:11;;;;;;;14.55;5.80;;;;;;;9.54;100.00;100581.19;5053198;28;20043;-64
2023/03/22 07:18:36;;;;;;;20.30;6.85;;;;;;;9.51;100.00;100569.13;5052750;28;20365;-64
2023/03/22 07:21:02;;;;;;;15.93;6.50;;;;;;;9.50;100.00;100577.69;5052976;28;20031;-64
2023/03/22 07:23:27;;;;;;;18.05;6.15;;;;;;;9.50;100.00;100582.84;5053274;28;20028;-63
2023/03/22 07:25:54;;;;;;;20.02;6.60;;;;;;;9.54;100.00;100582.09;5052785;28;20128;-64
2023/03/22 07:28:20;;;;;;;18.77;6.97;;;;;;;9.59;100.00;100583.91;5053580;28;20376;-64
2023/03/22 07:30:46;;;;;;;14.80;6.15;;;;;;;9.64;99.91;100577.19;5053224;28;20527;-64
2023/03/22 07:33:11;;;;;;;20.77;6.28;;;;;;;9.67;99.98;100582.44;5052484;28;20036;-65
2023/03/22 07:35:37;;;;;;;17.75;6.57;;;;;;;9.71;99.86;100592.00;5053084;28;20083;-64
2023/03/22 07:38:03;;;;;;;15.63;6.70;;;;;;;9.77;98.55;100584.44;5052786;28;20040;-63
2023/03/22 07:40:29;;;;;;;18.88;7.20;;;;;;;9.79;98.43;100595.66;5052788;28;20028;-64
2023/03/22 07:42:55;;;;;;;15.32;7.10;;;;;;;9.86;98.69;100587.28;5052101;28;20033;-64
2023/03/22 07:45:21;;;;;;;16.90;6.97;;;;;;;9.93;98.47;100592.59;5052968;28;20029;-63
2023/03/22 07:47:47;;;;;;;14.95;7.18;;;;;;;9.92;96.95;100590.88;5052518;28;20090;-64
2023/03/22 07:50:13;;;;;;;16.90;7.18;;;;;;;9.96;96.92;100590.97;5052665;28;20028;-63
2023/03/22 07:52:39;;;;;;;22.10;8.15;;;;;;;10.04;96.23;100602.38;5052895;28;20098;-63
2023/03/22 07:55:05;;;;;;;17.65;7.15;;;;;;;10.08;96.02;100593.03;5052142;28;20029;-64
2023/03/22 07:57:30;;;;;;;17.63;7.65;;;;;;;10.13;95.76;100588.00;5053005;28;20029;-64
2023/03/22 07:59:56;;;;;;;15.02;6.72;;;;;;;10.18;95.17;100589.88;5052094;28;20045;-64
2023/03/22 08:02:22;;;;;;;16.60;5.97;;;;;;;10.15;93.21;100596.66;5052158;28;20136;-63
2023/03/22 08:04:49;;;;;;;14.60;6.00;;;;;;;10.12;93.43;100588.84;5052724;28;20151;-63
2023/03/22 08:07:17;;;;;;;15.07;5.93;;;;;;;10.12;92.97;100597.44;5052461;28;20029;-63
2023/03/22 08:09:43;;;;;;;13.55;5.60;;;;;;;10.10;92.78;100599.09;5052430;28;20426;-63
2023/03/22 08:12:08;;;;;;;16.65;5.55;;;;;;;10.12;92.05;100589.72;5052651;28;20510;-64
2023/03/22 08:14:33;;;;;;;15.55;5.38;;;;;;;10.20;92.42;100593.38;5052505;28;20384;-64
2023/03/22 08:16:59;;;;;;;16.80;5.85;;;;;;;10.30;92.17;100602.22;5052086;28;20063;-64
2023/03/22 08:19:24;;;;;;;15.82;4.93;;;;;;;10.38;91.30;100592.16;5052816;28;20104;-63
2023/03/22 08:21:50;;;;;;;18.25;4.97;;;;;;;10.43;90.80;100600.00;5052094;28;20031;-64
2023/03/22 08:24:15;;;;;;;15.43;4.75;;;;;;;10.43;90.15;100611.19;5052556;28;20537;-64
2023/03/22 08:26:41;;;;;;;14.02;4.18;;;;;;;10.44;88.69;100596.59;5052717;28;20063;-63
2023/03/22 08:29:06;;;;;;;19.13;4.47;;;;;;;10.48;89.56;100596.72;5051592;28;20331;-64
2023/03/22 08:31:32;;;;;;;13.52;3.80;;;;;;;10.54;88.85;100596.84;5052537;28;20029;-64
2023/03/22 08:33:57;;;;;;;14.88;4.18;;;;;;;10.74;88.71;100598.19;5051827;28;20056;-64
2023/03/22 08:36:22;;;;;;;10.32;3.78;;;;;;;10.85;88.21;100589.03;5052265;28;20084;-63
2023/03/22 08:38:49;;;;;;;16.45;4.47;;;;;;;10.94;87.10;100583.22;5052457;28;20040;-64
2023/03/22 08:41:14;;;;;;;17.75;4.13;;;;;;;10.95;85.23;100580.69;5051902;28;20114;-63
2023/03/22 08:43:40;;;;;;;16.58;3.75;;;;;;;10.98;86.38;100578.16;5052082;28;20021;-63
2023/03/22 08:46:06;;;;;;;18.50;4.45;;;;;;;10.97;85.60;100568.66;5052019;28;20032;-62
2023/03/22 08:48:31;;;;;;;18.42;4.05;;;;;;;10.93;85.52;100576.31;5052090;28;20059;-63
2023/03/22 08:50:56;;;;;;;14.48;4.10;;;;;;;11.00;86.36;100573.91;5051734;28;20032;-63
2023/03/22 08:53:22;;;;;;;15.07;3.88;;;;;;;10.97;85.40;100578.97;5052436;28;20025;-63
2023/03/22 08:55:47;;;;;;;14.25;3.83;;;;;;;11.06;85.88;100574.91;5055399;28;20025;-63
2023/03/22 08:58:15;;;;;;;15.68;4.13;;;;;;;11.20;85.42;100582.09;5055480;28;20510;-63
2023/03/22 09:00:41;;;;;;;;;;;;;;;11.34;85.77;100568.66;5056353;28;20045;-63
2023/03/22 09:03:06;;;;;;;12.70;3.47;;;;;;;11.31;84.25;100569.47;5055382;28;20375;-63
2023/03/22 09:05:31;;;;;;;12.82;3.53;;;;;;;11.34;84.04;100573.81;5055421;28;20017;-63
2023/03/22 09:07:57;;;;;;;20.27;4.10;;;;;;;11.37;83.65;100571.28;5055684;28;20028;-64
2023/03/22 09:10:22;;;;;;;14.18;4.05;;;;;;;11.33;82.31;100567.75;5055703;28;20025;-63
2023/03/22 09:12:47;;;;;;;16.67;3.95;;;;;;;11.36;82.81;100561.81;5055332;28;20093;-63
2023/03/22 09:15:13;;;;;;;13.88;3.78;;;;;;;11.39;82.31;100561.00;5055517;28;20037;-63
2023/03/22 09:17:38;;;;;;;16.17;3.85;;;;;;;11.39;81.17;100559.31;5055462;28;20029;-63
2023/03/22 09:20:04;;;;;;;15.88;3.40;;;;;;;11.44;81.05;100569.72;5055066;28;20021;-64
2023/03/22 09:22:30;;;;;;;15.43;3.88;;;;;;;11.46;81.11;100562.88;5055795;28;20088;-64
2023/03/22 09:24:56;;;;;;;12.35;3.30;;;;;;;11.57;80.92;100563.09;5054954;28;20446;-64
2023/03/22 09:27:21;;;;;;;13.57;3.40;;;;;;;11.61;81.17;100562.34;5054644;28;20036;-64
2023/03/22 09:29:48;;;;;;;10.88;3.20;;;;;;;11.58;80.24;100557.09;5055710;28;20403;-64
2023/03/22 09:32:16;;;;;;;12.68;3.63;;;;;;;11.54;80.90;100558.75;5054283;28;20340;-64
2023/03/22 09:34:41;;;;;;;15.90;3.42;;;;;;;11.53;80.41;100549.28;5055439;28;20045;-64
2023/03/22 09:37:06;;;;;;;13.77;3.28;;;;;;;11.51;80.28;100550.94;5054969;28;20048;-64
2023/03/22 09:39:32;;;;;;;11.75;3.55;;;;;;;11.45;79.96;100556.88;5054892;28;20028;-64
2023/03/22 09:42:01;;;;;;;13.77;3.30;;;;;;;11.48;80.83;100550.91;5054777;28;20029;-64
2023/03/22 09:44:33;;;;;;;14.93;3.92;;;;;;;11.50;80.42;100556.94;5055073;28;20032;-64
2023/03/22 09:47:01;;;;;;;13.90;3.40;;;;;;;11.46;80.23;100545.69;5054298;28;20483;-64
2023/03/22 09:49:34;;;;;;;15.30;4.20;;;;;;;11.41;79.89;100549.00;5055117;28;20107;-64
2023/03/22 09:51:59;;;;;;;16.17;3.58;;;;;;;11.38;80.39;100554.13;5054729;28;20112;-64
2023/03/22 09:54:32;;;;;;;15.75;3.83;;;;;;;11.29;79.95;100545.31;5054412;28;20112;-64
2023/03/22 09:57:04;;;;;;;12.48;3.17;;;;;;;11.30;80.39;100551.38;5054939;28;20025;-64
2023/03/22 09:59:57;;;;;;;14.15;3.63;;;;;;;11.33;80.61;100546.25;5054697;28;20045;-64
2023/03/22 10:03:11;;;;;;;21.10;3.92;;;;;;;11.25;81.01;100561.56;5052038;28;20041;-64
2023/03/22 10:05:46;;;;;;;16.42;3.13;;;;;;;11.17;81.07;100556.25;5032177;28;20156;-64
2023/03/22 10:08:49;;;;;;;16.52;3.72;;;;;;;11.23;81.31;100550.34;5031970;28;20481;-64
2023/03/22 10:11:32;;;;;;;15.43;3.13;;;;;;;11.15;81.52;100552.75;5017594;28;20099;-63
2023/03/22 10:14:24;;;;;;;15.80;3.20;;;;;;;11.18;82.46;100550.25;5054084;28;20070;-64
2023/03/22 10:16:54;;;;;;;14.05;3.28;;;;;;;11.15;82.72;100557.06;5054589;28;20388;-64
2023/03/22 10:19:27;;;;;;;13.57;3.20;;;;;;;11.05;83.20;100555.97;5054842;28;20075;-63
2023/03/22 10:21:55;;;;;;;16.80;3.85;;;;;;;10.97;84.38;100562.66;5054211;28;20029;-64
2023/03/22 10:24:30;;;;;;;14.55;3.63;;;;;;;10.82;85.46;100569.19;5054572;28;20533;-63
2023/03/22 10:26:55;;;;;;;17.42;3.70;;;;;;;10.70;87.05;100561.16;5053930;28;20036;-63
2023/03/22 10:29:38;;;;;;;14.45;4.20;;;;;;;10.68;88.73;100575.72;5054049;28;20013;-64
2023/03/22 10:32:12;;;;;;;16.48;4.05;;;;;;;10.54;89.72;100578.81;5054101;28;20425;-64
2023/03/22 10:34:38;;;;;;;12.85;3.63;;;;;;;10.38;92.29;100566.41;5054222;28;20029;-64
2023/03/22 10:37:05;;;;;;;10.98;3.85;;;;;;;10.19;96.68;100576.16;5053782;28;20019;-64
2023/03/22 10:39:31;;;;;;;;;;;;;;;10.18;96.88;100582.13;5055158;28;20025;-64
2023/03/22 10:42:00;;;;;;;13.00;4.00;;;;;;;9.92;100.00;100583.16;5053919;28;19913;-65
2023/03/22 10:44:28;;;;;;;11.45;3.80;;;;;;;9.82;100.00;100584.59;5053833;28;20311;-64
2023/03/22 10:46:56;;;;;;;13.40;4.22;;;;;;;9.78;100.00;100575.03;5054204;28;20057;-64
2023/03/22 10:49:27;;;;;;;17.10;4.45;;;;;;;9.71;100.00;100579.13;5053945;28;20029;-63
2023/03/22 10:51:56;;;;;;;16.13;4.10;;;;;;;9.69;100.00;100576.50;5053934;28;20021;-63
2023/03/22 10:54:24;;;;;;;14.70;4.38;;;;;;;9.77;100.00;100571.56;5053914;28;20143;-63
2023/03/22 10:56:49;;;;;;;10.43;3.95;;;;;;;9.80;100.00;100575.94;5053488;28;20041;-63
2023/03/22 10:59:44;;;;;;;17.00;4.72;;;;;;;9.78;100.00;100577.59;5053451;28;20025;-63
2023/03/22 11:02:25;;;;;;;20.73;5.03;;;;;;;9.75;100.00;100580.97;5053082;28;20542;-64
2023/03/22 11:04:57;;;;;;;20.50;6.00;;;;;;;9.71;100.00;100581.72;5053378;28;20025;-64
2023/03/22 11:07:30;;;;;;;28.27;9.63;;;;;;;9.67;100.00;100574.72;5053820;28;20021;-63
2023/03/22 11:10:11;;;;;;;16.48;5.50;;;;;;;9.66;100.00;100573.00;5053175;28;20032;-63
2023/03/22 11:12:40;;;;;;;20.95;5.25;;;;;;;9.59;100.00;100571.91;5053411;28;20100;-63
2023/03/22 11:15:06;;;;;;;19.92;5.60;;;;;;;9.58;100.00;100574.44;5053282;28;20115;-63
2023/03/22 11:17:32;;;;;;;18.63;5.45;;;;;;;9.60;100.00;100575.38;5052882;28;20025;-64
2023/03/22 11:20:07;;;;;;;17.33;5.50;;;;;;;9.63;100.00;100562.59;5052475;28;20044;-64
2023/03/22 11:22:37;;;;;;;20.10;5.93;;;;;;;9.64;100.00;100570.34;5053211;28;20026;-63